PWSweather.com
Personal Weather Stations
Station Observations
IMAZOWIE6
WarszawaPL

WarszawaPL

Lat: 52.27957, Lon: 21.05489

Elevation: 100

Station Type: WS1080

http://stacjapogody.waw.pl/

High Low Average
Temperature 81.9°F27.7°C 62.1°F16.7°C 69.8°F21.0°C
Dew Point 20.7°F-6.3°C -166.6°F-110.3°C -137.5°F-94.2°C
Winds 4.0 mph 6.4 kmh Calm Calm 1.0 mph N1.6 kmh N
Wind Gusts 9.6 mph15.4 kmh -- 3.0 mph4.8 kmh
Humidity 19% 10% 15%
Pressure 29.58 in1001.7 mb 29.28 in991.5 mb -
Precipitation 0.00 in0.0 mm - -
Hour Temp Dew Point Humidity Winds Wind Gusts Pressure Precip Precip Rate Daily Precip Total
12:04 AM 65.8°F18.8°C -166.2°F-110.1°C - Calm Calm 1.4 mph2.3 kmh 29.58 in1001.7 mb 0.00 in0.0 mm 0.00 in0.0 mm 0.00 in0.0 mm
12:19 AM 65.5°F18.6°C -166.3°F-110.2°C - Calm Calm -- 29.57 in1001.4 mb 0.00 in0.0 mm 0.00 in0.0 mm 0.00 in0.0 mm
12:34 AM 65.5°F18.6°C -166.3°F-110.2°C - Calm Calm 1.4 mph2.3 kmh 29.57 in1001.4 mb 0.00 in0.0 mm 0.00 in0.0 mm 0.00 in0.0 mm
12:49 AM 65.3°F18.5°C -166.3°F-110.2°C - Calm Calm 2.0 mph3.2 kmh 29.57 in1001.4 mb 0.00 in0.0 mm 0.00 in0.0 mm 0.00 in0.0 mm
01:04 AM 64.9°F18.3°C -166.3°F-110.2°C - Calm Calm -- 29.56 in1001.0 mb 0.00 in0.0 mm 0.00 in0.0 mm 0.00 in0.0 mm
01:19 AM 64.8°F18.2°C -166.3°F-110.2°C - Calm Calm 1.4 mph2.3 kmh 29.56 in1001.0 mb 0.00 in0.0 mm 0.00 in0.0 mm 0.00 in0.0 mm
01:34 AM 64.6°F18.1°C -166.3°F-110.2°C - Calm Calm 1.4 mph2.3 kmh 29.57 in1001.4 mb 0.00 in0.0 mm 0.00 in0.0 mm 0.00 in0.0 mm
01:49 AM 64.4°F18.0°C -166.4°F-110.2°C - Calm Calm 1.4 mph2.3 kmh 29.56 in1001.0 mb 0.00 in0.0 mm 0.00 in0.0 mm 0.00 in0.0 mm
02:04 AM 64.6°F18.1°C -166.3°F-110.2°C - Calm Calm -- 29.55 in1000.7 mb 0.00 in0.0 mm 0.00 in0.0 mm 0.00 in0.0 mm
02:19 AM 64.4°F18.0°C -166.4°F-110.2°C - Calm Calm -- 29.54 in1000.3 mb 0.00 in0.0 mm 0.00 in0.0 mm 0.00 in0.0 mm
02:34 AM 64.4°F18.0°C -166.4°F-110.2°C - Calm Calm 0.6 mph1.0 kmh 29.54 in1000.3 mb 0.00 in0.0 mm 0.00 in0.0 mm 0.00 in0.0 mm
02:49 AM 64.6°F18.1°C -166.3°F-110.2°C - Calm Calm 2.0 mph3.2 kmh 29.54 in1000.3 mb 0.00 in0.0 mm 0.00 in0.0 mm 0.00 in0.0 mm
03:04 AM 64.6°F18.1°C -166.3°F-110.2°C - Calm Calm -- 29.53 in1000.0 mb 0.00 in0.0 mm 0.00 in0.0 mm 0.00 in0.0 mm
03:19 AM 64.8°F18.2°C -166.3°F-110.2°C - Calm Calm 2.8 mph4.5 kmh 29.53 in1000.0 mb 0.00 in0.0 mm 0.00 in0.0 mm 0.00 in0.0 mm
03:34 AM 64.6°F18.1°C -166.3°F-110.2°C - Calm Calm 1.4 mph2.3 kmh 29.52 in999.7 mb 0.00 in0.0 mm 0.00 in0.0 mm 0.00 in0.0 mm
03:49 AM 64.8°F18.2°C -166.3°F-110.2°C - Calm Calm 1.4 mph2.3 kmh 29.51 in999.3 mb 0.00 in0.0 mm 0.00 in0.0 mm 0.00 in0.0 mm
04:04 AM 64.4°F18.0°C -166.4°F-110.2°C - Calm Calm 1.4 mph2.3 kmh 29.51 in999.3 mb 0.00 in0.0 mm 0.00 in0.0 mm 0.00 in0.0 mm
04:19 AM 64.4°F18.0°C -166.4°F-110.2°C - Calm Calm 0.6 mph1.0 kmh 29.50 in999.0 mb 0.00 in0.0 mm 0.00 in0.0 mm 0.00 in0.0 mm
04:34 AM 64.6°F18.1°C -166.3°F-110.2°C - Calm Calm 0.6 mph1.0 kmh 29.49 in998.6 mb 0.00 in0.0 mm 0.00 in0.0 mm 0.00 in0.0 mm
04:49 AM 64.0°F17.8°C -166.4°F-110.2°C - 0.6 mph N1.0 kmh N 2.0 mph3.2 kmh 29.48 in998.3 mb 0.00 in0.0 mm 0.00 in0.0 mm 0.00 in0.0 mm
05:04 AM 64.2°F17.9°C -166.4°F-110.2°C - 0.6 mph N1.0 kmh N 2.0 mph3.2 kmh 29.47 in998.0 mb 0.00 in0.0 mm 0.00 in0.0 mm 0.00 in0.0 mm
05:19 AM 64.9°F18.3°C -166.3°F-110.2°C - 0.6 mph N1.0 kmh N 2.8 mph4.5 kmh 29.47 in998.0 mb 0.00 in0.0 mm 0.00 in0.0 mm 0.00 in0.0 mm
05:34 AM 66.2°F19.0°C -166.2°F-110.1°C - Calm Calm 1.4 mph2.3 kmh 29.46 in997.6 mb 0.00 in0.0 mm 0.00 in0.0 mm 0.00 in0.0 mm
05:49 AM 67.6°F19.8°C -166.0°F-110.0°C - 0.6 mph N1.0 kmh N 2.0 mph3.2 kmh 29.46 in997.6 mb 0.00 in0.0 mm 0.00 in0.0 mm 0.00 in0.0 mm
06:04 AM 69.6°F20.9°C -165.8°F-109.9°C - 2.8 mph N4.5 kmh N 5.4 mph8.7 kmh 29.47 in998.0 mb 0.00 in0.0 mm 0.00 in0.0 mm 0.00 in0.0 mm
06:19 AM 71.2°F21.8°C -165.7°F-109.8°C - 0.6 mph N1.0 kmh N 3.4 mph5.5 kmh 29.46 in997.6 mb 0.00 in0.0 mm 0.00 in0.0 mm 0.00 in0.0 mm
06:34 AM 72.5°F22.5°C -165.6°F-109.8°C - 2.0 mph N3.2 kmh N 4.8 mph7.7 kmh 29.47 in998.0 mb 0.00 in0.0 mm 0.00 in0.0 mm 0.00 in0.0 mm
06:49 AM 72.5°F22.5°C -165.6°F-109.8°C - 1.4 mph N2.3 kmh N 4.0 mph6.4 kmh 29.46 in997.6 mb 0.00 in0.0 mm 0.00 in0.0 mm 0.00 in0.0 mm
07:04 AM 73.2°F22.9°C -165.5°F-109.7°C - 3.4 mph N5.5 kmh N 4.8 mph7.7 kmh 29.46 in997.6 mb 0.00 in0.0 mm 0.00 in0.0 mm 0.00 in0.0 mm
07:19 AM 72.1°F22.3°C -165.6°F-109.8°C - 2.8 mph N4.5 kmh N 6.2 mph10.0 kmh 29.46 in997.6 mb 0.00 in0.0 mm 0.00 in0.0 mm 0.00 in0.0 mm
07:34 AM 71.6°F22.0°C -165.6°F-109.8°C - 1.4 mph N2.3 kmh N 2.8 mph4.5 kmh 29.45 in997.3 mb 0.00 in0.0 mm 0.00 in0.0 mm 0.00 in0.0 mm
07:49 AM 71.8°F22.1°C -165.6°F-109.8°C - 1.4 mph N2.3 kmh N 3.4 mph5.5 kmh 29.44 in997.0 mb 0.00 in0.0 mm 0.00 in0.0 mm 0.00 in0.0 mm
08:04 AM 72.1°F22.3°C -165.6°F-109.8°C - 0.6 mph N1.0 kmh N 2.8 mph4.5 kmh 29.43 in996.6 mb 0.00 in0.0 mm 0.00 in0.0 mm 0.00 in0.0 mm
08:19 AM 72.5°F22.5°C -165.6°F-109.8°C - 0.6 mph N1.0 kmh N 2.0 mph3.2 kmh 29.43 in996.6 mb 0.00 in0.0 mm 0.00 in0.0 mm 0.00 in0.0 mm
08:34 AM 74.3°F23.5°C -165.4°F-109.7°C - 1.4 mph N2.3 kmh N 2.8 mph4.5 kmh 29.42 in996.3 mb 0.00 in0.0 mm 0.00 in0.0 mm 0.00 in0.0 mm
08:49 AM 74.3°F23.5°C -165.4°F-109.7°C - 2.0 mph N3.2 kmh N 4.8 mph7.7 kmh 29.41 in995.9 mb 0.00 in0.0 mm 0.00 in0.0 mm 0.00 in0.0 mm
09:04 AM 74.5°F23.6°C -165.4°F-109.7°C - 2.0 mph N3.2 kmh N 4.8 mph7.7 kmh 29.40 in995.6 mb 0.00 in0.0 mm 0.00 in0.0 mm 0.00 in0.0 mm
09:19 AM 75.2°F24.0°C -165.3°F-109.6°C - 2.8 mph N4.5 kmh N 6.2 mph10.0 kmh 29.39 in995.3 mb 0.00 in0.0 mm 0.00 in0.0 mm 0.00 in0.0 mm
09:34 AM 76.3°F24.6°C -165.2°F-109.6°C - 2.8 mph N4.5 kmh N 4.8 mph7.7 kmh 29.38 in994.9 mb 0.00 in0.0 mm 0.00 in0.0 mm 0.00 in0.0 mm
09:49 AM 78.1°F25.6°C -165.0°F-109.4°C - 2.0 mph N3.2 kmh N 6.2 mph10.0 kmh 29.37 in994.6 mb 0.00 in0.0 mm 0.00 in0.0 mm 0.00 in0.0 mm
10:04 AM 78.1°F25.6°C -165.0°F-109.4°C - 2.8 mph N4.5 kmh N 6.2 mph10.0 kmh 29.37 in994.6 mb 0.00 in0.0 mm 0.00 in0.0 mm 0.00 in0.0 mm
10:19 AM 77.9°F25.5°C -165.0°F-109.4°C - 2.8 mph N4.5 kmh N 5.4 mph8.7 kmh 29.37 in994.6 mb 0.00 in0.0 mm 0.00 in0.0 mm 0.00 in0.0 mm
10:34 AM 78.1°F25.6°C -165.0°F-109.4°C - 4.0 mph N6.4 kmh N 7.4 mph11.9 kmh 29.36 in994.2 mb 0.00 in0.0 mm 0.00 in0.0 mm 0.00 in0.0 mm
10:49 AM 78.4°F25.8°C -165.0°F-109.4°C - 2.8 mph N4.5 kmh N 4.8 mph7.7 kmh 29.36 in994.2 mb 0.00 in0.0 mm 0.00 in0.0 mm 0.00 in0.0 mm
11:04 AM 79.9°F26.6°C -164.8°F-109.3°C - 4.0 mph N6.4 kmh N 7.4 mph11.9 kmh 29.35 in993.9 mb 0.00 in0.0 mm 0.00 in0.0 mm 0.00 in0.0 mm
11:19 AM 80.6°F27.0°C -164.7°F-109.3°C - 2.8 mph N4.5 kmh N 5.4 mph8.7 kmh 29.35 in993.9 mb 0.00 in0.0 mm 0.00 in0.0 mm 0.00 in0.0 mm
11:34 AM 80.4°F26.9°C -164.8°F-109.3°C - 3.4 mph N5.5 kmh N 5.4 mph8.7 kmh 29.35 in993.9 mb 0.00 in0.0 mm 0.00 in0.0 mm 0.00 in0.0 mm
11:49 AM 79.3°F26.3°C -164.9°F-109.4°C - 3.4 mph N5.5 kmh N 5.4 mph8.7 kmh 29.35 in993.9 mb 0.00 in0.0 mm 0.00 in0.0 mm 0.00 in0.0 mm
12:04 PM 78.1°F25.6°C -165.0°F-109.4°C - 3.4 mph N5.5 kmh N 6.2 mph10.0 kmh 29.35 in993.9 mb 0.00 in0.0 mm 0.00 in0.0 mm 0.00 in0.0 mm
12:19 PM 77.0°F25.0°C -165.1°F-109.5°C - 2.8 mph N4.5 kmh N 6.2 mph10.0 kmh 29.34 in993.6 mb 0.00 in0.0 mm 0.00 in0.0 mm 0.00 in0.0 mm
12:34 PM 76.3°F24.6°C -165.2°F-109.6°C - 2.0 mph N3.2 kmh N 5.4 mph8.7 kmh 29.34 in993.6 mb 0.00 in0.0 mm 0.00 in0.0 mm 0.00 in0.0 mm
12:49 PM 77.0°F25.0°C -165.1°F-109.5°C - 1.4 mph N2.3 kmh N 4.0 mph6.4 kmh 29.34 in993.6 mb 0.00 in0.0 mm 0.00 in0.0 mm 0.00 in0.0 mm
01:04 PM 77.9°F25.5°C -165.0°F-109.4°C - 1.4 mph N2.3 kmh N 2.8 mph4.5 kmh 29.33 in993.2 mb 0.00 in0.0 mm 0.00 in0.0 mm 0.00 in0.0 mm
01:19 PM 79.5°F26.4°C -164.8°F-109.3°C - 2.0 mph N3.2 kmh N 4.0 mph6.4 kmh 29.33 in993.2 mb 0.00 in0.0 mm 0.00 in0.0 mm 0.00 in0.0 mm
01:34 PM 80.6°F27.0°C -164.7°F-109.3°C - 1.4 mph N2.3 kmh N 4.0 mph6.4 kmh 29.32 in992.9 mb 0.00 in0.0 mm 0.00 in0.0 mm 0.00 in0.0 mm
01:49 PM 80.4°F26.9°C -164.8°F-109.3°C - 0.6 mph N1.0 kmh N 3.4 mph5.5 kmh 29.31 in992.6 mb 0.00 in0.0 mm 0.00 in0.0 mm 0.00 in0.0 mm
02:04 PM 79.5°F26.4°C -164.8°F-109.3°C - 2.0 mph N3.2 kmh N 4.0 mph6.4 kmh 29.31 in992.6 mb 0.00 in0.0 mm 0.00 in0.0 mm 0.00 in0.0 mm
02:19 PM 81.0°F27.2°C -164.7°F-109.3°C - 2.8 mph N4.5 kmh N 6.2 mph10.0 kmh 29.30 in992.2 mb 0.00 in0.0 mm 0.00 in0.0 mm 0.00 in0.0 mm
02:34 PM 81.9°F27.7°C -164.6°F-109.2°C - 2.0 mph N3.2 kmh N 6.8 mph10.9 kmh 29.29 in991.9 mb 0.00 in0.0 mm 0.00 in0.0 mm 0.00 in0.0 mm
02:49 PM 81.3°F27.4°C -164.7°F-109.3°C - 2.0 mph N3.2 kmh N 4.0 mph6.4 kmh 29.28 in991.5 mb 0.00 in0.0 mm 0.00 in0.0 mm 0.00 in0.0 mm
03:04 PM 81.1°F27.3°C -164.7°F-109.3°C - 4.0 mph N6.4 kmh N 9.6 mph15.4 kmh 29.28 in991.5 mb 0.00 in0.0 mm 0.00 in0.0 mm 0.00 in0.0 mm
03:19 PM 79.7°F26.5°C -164.8°F-109.3°C - 2.8 mph N4.5 kmh N 6.2 mph10.0 kmh 29.29 in991.9 mb 0.00 in0.0 mm 0.00 in0.0 mm 0.00 in0.0 mm
03:34 PM 76.5°F24.7°C -165.2°F-109.6°C - 0.6 mph N1.0 kmh N 2.8 mph4.5 kmh 29.32 in992.9 mb 0.00 in0.0 mm 0.00 in0.0 mm 0.00 in0.0 mm
03:49 PM 67.1°F19.5°C -166.1°F-110.1°C - Calm Calm 0.6 mph1.0 kmh 29.32 in992.9 mb 0.05 in1.3 mm 0.20 in5.1 mm 0.05 in1.3 mm
04:04 PM 65.1°F18.4°C -166.3°F-110.2°C - 0.6 mph N1.0 kmh N 2.8 mph4.5 kmh 29.33 in993.2 mb 0.06 in1.5 mm 0.02 in0.5 mm 0.06 in1.5 mm
04:19 PM 65.5°F18.6°C -166.3°F-110.2°C - Calm Calm 1.4 mph2.3 kmh 29.33 in993.2 mb 0.02 in0.5 mm 0.00 in0.0 mm 0.06 in1.5 mm
04:34 PM 66.4°F19.1°C -166.2°F-110.1°C - 0.6 mph N1.0 kmh N 3.4 mph5.5 kmh 29.33 in993.2 mb 0.02 in0.5 mm 0.00 in0.0 mm 0.06 in1.5 mm
04:49 PM 67.3°F19.6°C 8.9°F-12.8°C 10% Calm Calm -- 29.32 in992.9 mb 0.02 in0.5 mm 0.00 in0.0 mm 0.06 in1.5 mm
05:04 PM 67.3°F19.6°C 8.9°F-12.8°C 10% Calm Calm 0.6 mph1.0 kmh 29.34 in993.6 mb 0.02 in0.5 mm 0.00 in0.0 mm 0.06 in1.5 mm
05:19 PM 67.6°F19.8°C 9.2°F-12.7°C 10% Calm Calm 0.6 mph1.0 kmh 29.33 in993.2 mb 0.00 in0.0 mm 0.00 in0.0 mm 0.06 in1.5 mm
05:34 PM 68.2°F20.1°C -166.0°F-110.0°C - Calm Calm -- 29.33 in993.2 mb 0.00 in0.0 mm 0.00 in0.0 mm 0.06 in1.5 mm
05:49 PM 68.0°F20.0°C -166.0°F-110.0°C - Calm Calm -- 29.33 in993.2 mb 0.00 in0.0 mm 0.00 in0.0 mm 0.06 in1.5 mm
06:04 PM 68.2°F20.1°C -166.0°F-110.0°C - Calm Calm -- 29.33 in993.2 mb 0.00 in0.0 mm 0.00 in0.0 mm 0.06 in1.5 mm
06:19 PM 68.2°F20.1°C -166.0°F-110.0°C - Calm Calm -- 29.33 in993.2 mb 0.00 in0.0 mm 0.00 in0.0 mm 0.06 in1.5 mm
06:34 PM 68.0°F20.0°C -166.0°F-110.0°C - Calm Calm -- 29.34 in993.6 mb 0.00 in0.0 mm 0.00 in0.0 mm 0.06 in1.5 mm
06:49 PM 67.8°F19.9°C -166.0°F-110.0°C - Calm Calm -- 29.33 in993.2 mb 0.00 in0.0 mm 0.00 in0.0 mm 0.06 in1.5 mm
07:04 PM 67.6°F19.8°C -166.0°F-110.0°C - Calm Calm 1.4 mph2.3 kmh 29.34 in993.6 mb 0.00 in0.0 mm 0.00 in0.0 mm 0.06 in1.5 mm
07:19 PM 66.4°F19.1°C -166.2°F-110.1°C - Calm Calm 2.8 mph4.5 kmh 29.35 in993.9 mb 0.01 in0.3 mm 0.05 in1.3 mm 0.07 in1.8 mm
07:34 PM 65.5°F18.6°C -166.3°F-110.2°C - Calm Calm -- 29.35 in993.9 mb 0.01 in0.3 mm 0.00 in0.0 mm 0.07 in1.8 mm
07:49 PM 65.3°F18.5°C -166.3°F-110.2°C - Calm Calm 1.4 mph2.3 kmh 29.36 in994.2 mb 0.01 in0.3 mm 0.00 in0.0 mm 0.07 in1.8 mm
08:04 PM 64.9°F18.3°C -166.3°F-110.2°C - Calm Calm 0.6 mph1.0 kmh 29.36 in994.2 mb 0.01 in0.3 mm 0.00 in0.0 mm 0.07 in1.8 mm
08:19 PM 64.6°F18.1°C 8.9°F-12.8°C 11% Calm Calm 0.6 mph1.0 kmh 29.37 in994.6 mb 0.00 in0.0 mm 0.00 in0.0 mm 0.07 in1.8 mm
08:34 PM 64.8°F18.2°C 14.4°F-9.8°C 14% Calm Calm 1.4 mph2.3 kmh 29.37 in994.6 mb 0.00 in0.0 mm 0.00 in0.0 mm 0.07 in1.8 mm
08:49 PM 64.2°F17.9°C 15.5°F-9.2°C 15% Calm Calm 1.4 mph2.3 kmh 29.37 in994.6 mb 0.00 in0.0 mm 0.00 in0.0 mm 0.07 in1.8 mm
09:04 PM 64.2°F17.9°C 17.0°F-8.3°C 16% 0.6 mph N1.0 kmh N 2.0 mph3.2 kmh 29.38 in994.9 mb 0.00 in0.0 mm 0.00 in0.0 mm 0.07 in1.8 mm
09:19 PM 64.0°F17.8°C 19.6°F-6.9°C 18% Calm Calm 1.4 mph2.3 kmh 29.38 in994.9 mb 0.00 in0.0 mm 0.00 in0.0 mm 0.07 in1.8 mm
09:34 PM 63.9°F17.7°C 20.7°F-6.3°C 19% Calm Calm 0.6 mph1.0 kmh 29.39 in995.3 mb 0.00 in0.0 mm 0.00 in0.0 mm 0.07 in1.8 mm
09:49 PM 63.5°F17.5°C 20.4°F-6.4°C 19% Calm Calm -- 29.39 in995.3 mb 0.00 in0.0 mm 0.00 in0.0 mm 0.07 in1.8 mm
10:04 PM 63.0°F17.2°C 19.9°F-6.7°C 19% Calm Calm 0.6 mph1.0 kmh 29.39 in995.3 mb 0.00 in0.0 mm 0.00 in0.0 mm 0.07 in1.8 mm
10:19 PM 62.8°F17.1°C 18.5°F-7.5°C 18% Calm Calm 1.4 mph2.3 kmh 29.39 in995.3 mb 0.00 in0.0 mm 0.00 in0.0 mm 0.07 in1.8 mm
10:34 PM 62.6°F17.0°C 17.1°F-8.3°C 17% Calm Calm 1.4 mph2.3 kmh 29.39 in995.3 mb 0.00 in0.0 mm 0.00 in0.0 mm 0.07 in1.8 mm
10:49 PM 62.6°F17.0°C 14.2°F-9.9°C 15% Calm Calm 2.0 mph3.2 kmh 29.39 in995.3 mb 0.00 in0.0 mm 0.00 in0.0 mm 0.07 in1.8 mm
11:04 PM 62.4°F16.9°C 10.9°F-11.7°C 13% 0.6 mph N1.0 kmh N 2.8 mph4.5 kmh 29.40 in995.6 mb 0.00 in0.0 mm 0.00 in0.0 mm 0.07 in1.8 mm
11:19 PM 62.1°F16.7°C -166.6°F-110.3°C - 0.6 mph N1.0 kmh N 2.0 mph3.2 kmh 29.40 in995.6 mb 0.00 in0.0 mm 0.00 in0.0 mm 0.07 in1.8 mm
11:34 PM 62.2°F16.8°C -166.6°F-110.3°C - 1.4 mph N2.3 kmh N 2.8 mph4.5 kmh 29.40 in995.6 mb 0.00 in0.0 mm 0.00 in0.0 mm 0.07 in1.8 mm
11:49 PM 62.1°F16.7°C -166.6°F-110.3°C - 0.6 mph N1.0 kmh N 1.4 mph2.3 kmh 29.40 in995.6 mb 0.00 in0.0 mm 0.00 in0.0 mm 0.07 in1.8 mm